sensor_id;sensor_type;location;lat;lon;timestamp;pressure;altitude;pressure_sealevel;temperature;humidity
6208;BME280;3137;51.550;7.060;2023-03-07T00:00:42;99469.25;;;3.51;90.71
6208;BME280;3137;51.550;7.060;2023-03-07T00:03:13;99451.00;;;3.60;90.70
6208;BME280;3137;51.550;7.060;2023-03-07T00:05:40;99466.78;;;3.62;90.57
6208;BME280;3137;51.550;7.060;2023-03-07T00:08:08;99455.25;;;3.63;91.07
6208;BME280;3137;51.550;7.060;2023-03-07T00:10:34;99453.16;;;3.68;90.26
6208;BME280;3137;51.550;7.060;2023-03-07T00:13:01;99450.50;;;3.68;90.27
6208;BME280;3137;51.550;7.060;2023-03-07T00:15:29;99456.75;;;3.67;90.79
6208;BME280;3137;51.550;7.060;2023-03-07T00:17:56;99448.63;;;3.70;90.48
6208;BME280;3137;51.550;7.060;2023-03-07T00:20:23;99458.16;;;3.73;90.55
6208;BME280;3137;51.550;7.060;2023-03-07T00:22:49;99449.38;;;3.72;90.43
6208;BME280;3137;51.550;7.060;2023-03-07T00:25:16;99450.50;;;3.68;90.13
6208;BME280;3137;51.550;7.060;2023-03-07T00:27:42;99447.84;;;3.68;90.61
6208;BME280;3137;51.550;7.060;2023-03-07T00:30:09;99452.00;;;3.72;90.52
6208;BME280;3137;51.550;7.060;2023-03-07T00:32:37;99453.53;;;3.76;90.55
6208;BME280;3137;51.550;7.060;2023-03-07T00:35:04;99445.75;;;3.73;91.04
6208;BME280;3137;51.550;7.060;2023-03-07T00:37:30;99446.44;;;3.77;91.38
6208;BME280;3137;51.550;7.060;2023-03-07T00:39:57;99449.38;;;3.72;91.17
6208;BME280;3137;51.550;7.060;2023-03-07T00:42:23;99439.75;;;3.71;90.59
6208;BME280;3137;51.550;7.060;2023-03-07T00:44:49;99440.59;;;3.72;90.53
6208;BME280;3137;51.550;7.060;2023-03-07T00:47:16;99446.94;;;3.69;90.33
6208;BME280;3137;51.550;7.060;2023-03-07T00:49:42;99447.00;;;3.68;90.29
6208;BME280;3137;51.550;7.060;2023-03-07T00:52:09;99431.97;;;3.68;90.94
6208;BME280;3137;51.550;7.060;2023-03-07T00:54:35;99441.63;;;3.69;90.61
6208;BME280;3137;51.550;7.060;2023-03-07T00:57:02;99445.22;;;3.68;90.49
6208;BME280;3137;51.550;7.060;2023-03-07T00:59:28;99436.97;;;3.73;90.65
6208;BME280;3137;51.550;7.060;2023-03-07T01:01:55;99440.03;;;3.67;91.41
6208;BME280;3137;51.550;7.060;2023-03-07T01:04:21;99435.59;;;3.67;90.94
6208;BME280;3137;51.550;7.060;2023-03-07T01:06:48;99439.28;;;3.65;90.92
6208;BME280;3137;51.550;7.060;2023-03-07T01:09:15;99436.44;;;3.68;91.75
6208;BME280;3137;51.550;7.060;2023-03-07T01:11:42;99433.78;;;3.68;90.83
6208;BME280;3137;51.550;7.060;2023-03-07T01:14:09;99437.47;;;3.65;91.22
6208;BME280;3137;51.550;7.060;2023-03-07T01:16:36;99435.38;;;3.70;90.89
6208;BME280;3137;51.550;7.060;2023-03-07T01:19:06;99437.28;;;3.68;91.35
6208;BME280;3137;51.550;7.060;2023-03-07T01:21:36;99421.38;;;3.68;91.25
6208;BME280;3137;51.550;7.060;2023-03-07T01:24:07;99430.00;;;3.72;91.21
6208;BME280;3137;51.550;7.060;2023-03-07T01:26:33;99424.03;;;3.68;90.97
6208;BME280;3137;51.550;7.060;2023-03-07T01:29:02;99435.59;;;3.67;91.46
6208;BME280;3137;51.550;7.060;2023-03-07T01:31:32;99425.53;;;3.72;90.89
6208;BME280;3137;51.550;7.060;2023-03-07T01:34:00;99428.94;;;3.74;90.83
6208;BME280;3137;51.550;7.060;2023-03-07T01:36:31;99419.19;;;3.75;90.87
6208;BME280;3137;51.550;7.060;2023-03-07T01:39:08;99421.75;;;3.76;91.01
6208;BME280;3137;51.550;7.060;2023-03-07T01:41:39;99410.41;;;3.74;91.45
6208;BME280;3137;51.550;7.060;2023-03-07T01:44:16;99398.84;;;3.75;90.86
6208;BME280;3137;51.550;7.060;2023-03-07T01:46:55;99413.81;;;3.76;90.92
6208;BME280;3137;51.550;7.060;2023-03-07T01:49:35;99411.25;;;3.75;91.46
6208;BME280;3137;51.550;7.060;2023-03-07T01:52:09;99399.59;;;3.77;91.34
6208;BME280;3137;51.550;7.060;2023-03-07T01:54:44;99394.31;;;3.77;90.64
6208;BME280;3137;51.550;7.060;2023-03-07T01:57:18;99389.56;;;3.82;90.51
6208;BME280;3137;51.550;7.060;2023-03-07T01:59:48;99401.00;;;3.83;91.08
6208;BME280;3137;51.550;7.060;2023-03-07T02:02:18;99390.31;;;3.84;90.51
6208;BME280;3137;51.550;7.060;2023-03-07T02:05:00;99384.19;;;3.84;90.55
6208;BME280;3137;51.550;7.060;2023-03-07T02:07:32;99383.22;;;3.85;90.47
6208;BME280;3137;51.550;7.060;2023-03-07T02:10:02;99380.88;;;3.80;90.58
6208;BME280;3137;51.550;7.060;2023-03-07T02:12:29;99381.63;;;3.82;90.60
6208;BME280;3137;51.550;7.060;2023-03-07T02:14:55;99381.91;;;3.78;89.85
6208;BME280;3137;51.550;7.060;2023-03-07T02:17:22;99383.44;;;3.82;89.87
6208;BME280;3137;51.550;7.060;2023-03-07T02:20:13;99377.69;;;3.75;89.09
6208;BME280;3137;51.550;7.060;2023-03-07T02:22:47;99370.28;;;3.80;89.45
6208;BME280;3137;51.550;7.060;2023-03-07T02:25:48;99368.03;;;3.74;88.89
6208;BME280;3137;51.550;7.060;2023-03-07T02:28:19;99364.34;;;3.77;88.51
6208;BME280;3137;51.550;7.060;2023-03-07T02:30:57;99357.66;;;3.71;88.72
6208;BME280;3137;51.550;7.060;2023-03-07T02:33:25;99364.75;;;3.71;88.27
6208;BME280;3137;51.550;7.060;2023-03-07T02:36:02;99354.81;;;3.74;87.92
6208;BME280;3137;51.550;7.060;2023-03-07T02:38:33;99349.59;;;3.73;88.85
6208;BME280;3137;51.550;7.060;2023-03-07T02:41:04;99350.44;;;3.73;89.35
6208;BME280;3137;51.550;7.060;2023-03-07T02:43:33;99335.97;;;3.79;88.29
6208;BME280;3137;51.550;7.060;2023-03-07T02:46:01;99341.28;;;3.79;89.33
6208;BME280;3137;51.550;7.060;2023-03-07T02:48:27;99339.25;;;3.82;89.02
6208;BME280;3137;51.550;7.060;2023-03-07T02:50:53;99341.59;;;3.87;89.22
6208;BME280;3137;51.550;7.060;2023-03-07T02:53:20;99337.25;;;3.86;89.12
6208;BME280;3137;51.550;7.060;2023-03-07T02:55:46;99345.50;;;3.81;88.95
6208;BME280;3137;51.550;7.060;2023-03-07T02:58:13;99331.59;;;3.78;89.56
6208;BME280;3137;51.550;7.060;2023-03-07T03:00:39;99337.66;;;3.80;88.86
6208;BME280;3137;51.550;7.060;2023-03-07T03:03:06;99330.38;;;3.83;89.09
6208;BME280;3137;51.550;7.060;2023-03-07T03:05:32;99328.34;;;3.87;89.08
6208;BME280;3137;51.550;7.060;2023-03-07T03:07:59;99325.06;;;3.83;88.79
6208;BME280;3137;51.550;7.060;2023-03-07T03:10:25;99339.25;;;3.82;88.52
6208;BME280;3137;51.550;7.060;2023-03-07T03:12:52;99331.84;;;3.88;88.11
6208;BME280;3137;51.550;7.060;2023-03-07T03:15:18;99329.31;;;3.86;88.73
6208;BME280;3137;51.550;7.060;2023-03-07T03:17:45;99336.59;;;3.82;88.63
6208;BME280;3137;51.550;7.060;2023-03-07T03:20:12;99331.84;;;3.88;89.55
6208;BME280;3137;51.550;7.060;2023-03-07T03:22:39;99327.31;;;3.90;89.08
6208;BME280;3137;51.550;7.060;2023-03-07T03:25:08;99321.81;;;3.93;88.73
6208;BME280;3137;51.550;7.060;2023-03-07T03:27:37;99328.25;;;3.89;88.79
6208;BME280;3137;51.550;7.060;2023-03-07T03:30:06;99335.78;;;3.95;88.98
6208;BME280;3137;51.550;7.060;2023-03-07T03:32:35;99318.22;;;3.94;88.46
6208;BME280;3137;51.550;7.060;2023-03-07T03:35:02;99329.09;;;3.89;88.35
6208;BME280;3137;51.550;7.060;2023-03-07T03:37:30;99325.25;;;3.80;88.43
6208;BME280;3137;51.550;7.060;2023-03-07T03:39:57;99317.97;;;3.84;88.67
6208;BME280;3137;51.550;7.060;2023-03-07T03:42:24;99326.44;;;3.76;88.40
6208;BME280;3137;51.550;7.060;2023-03-07T03:44:50;99327.66;;;3.71;88.55
6208;BME280;3137;51.550;7.060;2023-03-07T03:47:17;99331.06;;;3.73;89.45
6208;BME280;3137;51.550;7.060;2023-03-07T03:49:43;99333.94;;;3.70;89.46
6208;BME280;3137;51.550;7.060;2023-03-07T03:52:10;99322.88;;;3.63;89.25
6208;BME280;3137;51.550;7.060;2023-03-07T03:54:36;99326.59;;;3.60;89.92
6208;BME280;3137;51.550;7.060;2023-03-07T03:57:02;99327.84;;;3.55;89.80
6208;BME280;3137;51.550;7.060;2023-03-07T03:59:29;99322.41;;;3.44;90.21
6208;BME280;3137;51.550;7.060;2023-03-07T04:01:56;99327.91;;;3.40;89.57
6208;BME280;3137;51.550;7.060;2023-03-07T04:04:23;99338.66;;;3.37;90.10
6208;BME280;3137;51.550;7.060;2023-03-07T04:06:49;99317.69;;;3.34;89.88
6208;BME280;3137;51.550;7.060;2023-03-07T04:09:16;99312.91;;;3.27;90.31
6208;BME280;3137;51.550;7.060;2023-03-07T04:11:45;99323.03;;;3.20;90.04
6208;BME280;3137;51.550;7.060;2023-03-07T04:14:12;99317.88;;;3.18;90.52
6208;BME280;3137;51.550;7.060;2023-03-07T04:16:38;99308.22;;;3.17;90.51
6208;BME280;3137;51.550;7.060;2023-03-07T04:19:04;99305.97;;;3.11;90.69
6208;BME280;3137;51.550;7.060;2023-03-07T04:21:31;99306.34;;;3.05;90.42
6208;BME280;3137;51.550;7.060;2023-03-07T04:23:58;99310.88;;;3.03;90.33
6208;BME280;3137;51.550;7.060;2023-03-07T04:26:29;99302.03;;;3.04;90.41
6208;BME280;3137;51.550;7.060;2023-03-07T04:28:56;99298.22;;;3.08;90.67
6208;BME280;3137;51.550;7.060;2023-03-07T04:31:37;99292.16;;;3.06;91.06
6208;BME280;3137;51.550;7.060;2023-03-07T04:34:05;99297.47;;;3.06;91.01
6208;BME280;3137;51.550;7.060;2023-03-07T04:36:32;99291.13;;;3.09;90.68
6208;BME280;3137;51.550;7.060;2023-03-07T04:38:58;99285.66;;;3.12;91.08
6208;BME280;3137;51.550;7.060;2023-03-07T04:41:25;99275.25;;;3.09;91.38
6208;BME280;3137;51.550;7.060;2023-03-07T04:43:56;99273.38;;;3.11;91.16
6208;BME280;3137;51.550;7.060;2023-03-07T04:46:24;99276.97;;;3.10;91.76
6208;BME280;3137;51.550;7.060;2023-03-07T04:48:50;99281.31;;;3.11;91.83
6208;BME280;3137;51.550;7.060;2023-03-07T04:51:18;99272.16;;;3.16;92.29
6208;BME280;3137;51.550;7.060;2023-03-07T04:53:44;99274.78;;;3.16;92.29
6208;BME280;3137;51.550;7.060;2023-03-07T04:56:11;99259.00;;;3.15;92.23
6208;BME280;3137;51.550;7.060;2023-03-07T04:58:41;99260.91;;;3.13;92.86
6208;BME280;3137;51.550;7.060;2023-03-07T05:01:08;99259.00;;;3.15;92.29
6208;BME280;3137;51.550;7.060;2023-03-07T05:03:35;99253.31;;;3.21;92.29
6208;BME280;3137;51.550;7.060;2023-03-07T05:06:05;99251.81;;;3.17;92.47
6208;BME280;3137;51.550;7.060;2023-03-07T05:08:33;99253.41;;;3.19;92.75
6208;BME280;3137;51.550;7.060;2023-03-07T05:11:00;99253.22;;;3.23;93.11
6208;BME280;3137;51.550;7.060;2023-03-07T05:13:27;99250.69;;;3.21;92.61
6208;BME280;3137;51.550;7.060;2023-03-07T05:15:56;99248.66;;;3.25;92.47
6208;BME280;3137;51.550;7.060;2023-03-07T05:18:23;99237.88;;;3.28;92.48
6208;BME280;3137;51.550;7.060;2023-03-07T05:20:51;99242.53;;;3.24;92.20
6208;BME280;3137;51.550;7.060;2023-03-07T05:23:18;99244.03;;;3.28;93.02
6208;BME280;3137;51.550;7.060;2023-03-07T05:25:47;99225.81;;;3.24;92.94
6208;BME280;3137;51.550;7.060;2023-03-07T05:28:13;99225.63;;;3.27;93.01
6208;BME280;3137;51.550;7.060;2023-03-07T05:30:43;99228.88;;;3.30;92.78
6208;BME280;3137;51.550;7.060;2023-03-07T05:33:09;99228.72;;;3.33;93.03
6208;BME280;3137;51.550;7.060;2023-03-07T05:35:37;99222.44;;;3.34;92.90
6208;BME280;3137;51.550;7.060;2023-03-07T05:38:05;99226.59;;;3.38;93.61
6208;BME280;3137;51.550;7.060;2023-03-07T05:40:32;99220.47;;;3.38;93.36
6208;BME280;3137;51.550;7.060;2023-03-07T05:42:59;99222.16;;;3.39;93.28
6208;BME280;3137;51.550;7.060;2023-03-07T05:45:26;99214.00;;;3.42;93.34
6208;BME280;3137;51.550;7.060;2023-03-07T05:47:52;99219.50;;;3.39;93.49
6208;BME280;3137;51.550;7.060;2023-03-07T05:50:19;99220.78;;;3.46;93.39
6208;BME280;3137;51.550;7.060;2023-03-07T05:52:46;99216.75;;;3.40;92.83
6208;BME280;3137;51.550;7.060;2023-03-07T05:55:12;99219.94;;;3.46;93.14
6208;BME280;3137;51.550;7.060;2023-03-07T05:57:39;99214.44;;;3.49;92.46
6208;BME280;3137;51.550;7.060;2023-03-07T06:00:06;99217.22;;;3.47;91.79
6208;BME280;3137;51.550;7.060;2023-03-07T06:02:39;99212.41;;;3.39;92.09
6208;BME280;3137;51.550;7.060;2023-03-07T06:05:06;99212.09;;;3.44;92.26
6208;BME280;3137;51.550;7.060;2023-03-07T06:07:32;99221.75;;;3.45;92.16
6208;BME280;3137;51.550;7.060;2023-03-07T06:09:59;99208.53;;;3.45;92.26
6208;BME280;3137;51.550;7.060;2023-03-07T06:12:25;99207.88;;;3.41;92.33
6208;BME280;3137;51.550;7.060;2023-03-07T06:14:51;99202.19;;;3.48;92.20
6208;BME280;3137;51.550;7.060;2023-03-07T06:17:18;99204.59;;;3.51;91.69
6208;BME280;3137;51.550;7.060;2023-03-07T06:19:44;99197.41;;;3.53;91.78
6208;BME280;3137;51.550;7.060;2023-03-07T06:22:11;99196.56;;;3.52;92.02
6208;BME280;3137;51.550;7.060;2023-03-07T06:24:37;99196.66;;;3.51;91.65
6208;BME280;3137;51.550;7.060;2023-03-07T06:27:04;99190.63;;;3.49;92.33
6208;BME280;3137;51.550;7.060;2023-03-07T06:29:30;99197.41;;;3.53;92.56
6208;BME280;3137;51.550;7.060;2023-03-07T06:31:58;99197.41;;;3.53;91.56
6208;BME280;3137;51.550;7.060;2023-03-07T06:34:24;99204.59;;;3.51;92.25
6208;BME280;3137;51.550;7.060;2023-03-07T06:36:51;99206.94;;;3.55;91.87
6208;BME280;3137;51.550;7.060;2023-03-07T06:39:17;99199.22;;;3.52;91.31
6208;BME280;3137;51.550;7.060;2023-03-07T06:41:50;99195.31;;;3.58;91.56
6208;BME280;3137;51.550;7.060;2023-03-07T06:44:17;99186.53;;;3.57;91.62
6208;BME280;3137;51.550;7.060;2023-03-07T06:46:44;99191.06;;;3.55;91.36
6208;BME280;3137;51.550;7.060;2023-03-07T06:49:14;99196.13;;;3.58;92.22
6208;BME280;3137;51.550;7.060;2023-03-07T06:51:41;99184.81;;;3.56;91.86
6208;BME280;3137;51.550;7.060;2023-03-07T06:54:09;99194.34;;;3.59;91.73
6208;BME280;3137;51.550;7.060;2023-03-07T06:56:36;99183.97;;;3.56;91.75
6208;BME280;3137;51.550;7.060;2023-03-07T06:59:02;99179.50;;;3.56;91.76
6208;BME280;3137;51.550;7.060;2023-03-07T07:01:29;99189.03;;;3.59;91.85
6208;BME280;3137;51.550;7.060;2023-03-07T07:03:58;99184.06;;;3.54;92.33
6208;BME280;3137;51.550;7.060;2023-03-07T07:06:26;99186.41;;;3.59;92.44
6208;BME280;3137;51.550;7.060;2023-03-07T07:08:54;99189.78;;;3.61;92.68
6208;BME280;3137;51.550;7.060;2023-03-07T07:11:23;99183.75;;;3.59;92.43
6208;BME280;3137;51.550;7.060;2023-03-07T07:13:49;99183.56;;;3.62;91.78
6208;BME280;3137;51.550;7.060;2023-03-07T07:16:18;99185.56;;;3.58;92.48
6208;BME280;3137;51.550;7.060;2023-03-07T07:18:45;99189.69;;;3.62;92.24
6208;BME280;3137;51.550;7.060;2023-03-07T07:21:12;99180.25;;;3.58;92.07
6208;BME280;3137;51.550;7.060;2023-03-07T07:23:40;99191.50;;;3.62;92.09
6208;BME280;3137;51.550;7.060;2023-03-07T07:26:06;99183.03;;;3.57;92.46
6208;BME280;3137;51.550;7.060;2023-03-07T07:28:34;99189.25;;;3.56;92.44
6208;BME280;3137;51.550;7.060;2023-03-07T07:31:01;99196.44;;;3.54;92.45
6208;BME280;3137;51.550;7.060;2023-03-07T07:33:30;99187.75;;;3.52;92.29
6208;BME280;3137;51.550;7.060;2023-03-07T07:35:57;99185.88;;;3.54;92.59
6208;BME280;3137;51.550;7.060;2023-03-07T07:38:23;99184.19;;;3.53;92.65
6208;BME280;3137;51.550;7.060;2023-03-07T07:40:50;99180.38;;;3.57;92.36
6208;BME280;3137;51.550;7.060;2023-03-07T07:43:16;99174.53;;;3.52;92.17
6208;BME280;3137;51.550;7.060;2023-03-07T07:45:55;99189.56;;;3.51;91.79
6208;BME280;3137;51.550;7.060;2023-03-07T07:48:22;99190.53;;;3.50;92.09
6208;BME280;3137;51.550;7.060;2023-03-07T07:50:50;99192.34;;;3.50;92.90
6208;BME280;3137;51.550;7.060;2023-03-07T07:53:18;99197.81;;;3.47;93.31
6208;BME280;3137;51.550;7.060;2023-03-07T07:55:45;99189.69;;;3.50;93.19
6208;BME280;3137;51.550;7.060;2023-03-07T07:58:14;99193.63;;;3.57;92.83
6208;BME280;3137;51.550;7.060;2023-03-07T08:00:47;99192.13;;;3.53;92.60
6208;BME280;3137;51.550;7.060;2023-03-07T08:03:13;99190.41;;;3.52;93.34
6208;BME280;3137;51.550;7.060;2023-03-07T08:05:44;99196.66;;;3.38;92.65
6208;BME280;3137;51.550;7.060;2023-03-07T08:08:11;99196.06;;;3.20;92.44
6208;BME280;3137;51.550;7.060;2023-03-07T08:10:37;99206.41;;;3.10;92.18
6208;BME280;3137;51.550;7.060;2023-03-07T08:13:11;99209.78;;;3.00;91.84
6208;BME280;3137;51.550;7.060;2023-03-07T08:15:38;99213.50;;;2.83;91.39
6208;BME280;3137;51.550;7.060;2023-03-07T08:18:04;99215.22;;;2.69;91.95
6208;BME280;3137;51.550;7.060;2023-03-07T08:20:30;99221.09;;;2.60;91.25
6208;BME280;3137;51.550;7.060;2023-03-07T08:22:57;99228.56;;;2.53;91.54
6208;BME280;3137;51.550;7.060;2023-03-07T08:25:24;99221.78;;;2.49;91.41
6208;BME280;3137;51.550;7.060;2023-03-07T08:27:51;99222.63;;;2.50;91.40
6208;BME280;3137;51.550;7.060;2023-03-07T08:30:24;99221.97;;;2.46;91.68
6208;BME280;3137;51.550;7.060;2023-03-07T08:32:52;99222.66;;;2.36;91.58
6208;BME280;3137;51.550;7.060;2023-03-07T08:35:19;99221.50;;;2.40;91.92
6208;BME280;3137;51.550;7.060;2023-03-07T08:37:46;99226.81;;;2.40;91.41
6208;BME280;3137;51.550;7.060;2023-03-07T08:40:15;99223.41;;;2.38;91.22
6208;BME280;3137;51.550;7.060;2023-03-07T08:42:42;99220.00;;;2.36;91.85
6208;BME280;3137;51.550;7.060;2023-03-07T08:45:08;99218.28;;;2.34;91.70
6208;BME280;3137;51.550;7.060;2023-03-07T08:47:35;99223.28;;;2.39;91.78
6208;BME280;3137;51.550;7.060;2023-03-07T08:50:02;99222.16;;;2.43;91.92
6208;BME280;3137;51.550;7.060;2023-03-07T08:52:29;99222.72;;;2.34;91.80
6208;BME280;3137;51.550;7.060;2023-03-07T08:54:55;99217.16;;;2.39;92.48
6208;BME280;3137;51.550;7.060;2023-03-07T08:57:22;99222.66;;;2.36;92.34
6208;BME280;3137;51.550;7.060;2023-03-07T08:59:49;99223.19;;;2.41;92.23
6208;BME280;3137;51.550;7.060;2023-03-07T09:02:16;99224.31;;;2.37;92.57
6208;BME280;3137;51.550;7.060;2023-03-07T09:04:42;99227.66;;;2.40;92.58
6208;BME280;3137;51.550;7.060;2023-03-07T09:07:08;99230.09;;;2.29;92.23
6208;BME280;3137;51.550;7.060;2023-03-07T09:09:35;99245.47;;;2.22;92.34
6208;BME280;3137;51.550;7.060;2023-03-07T09:12:01;99245.00;;;2.16;92.03
6208;BME280;3137;51.550;7.060;2023-03-07T09:14:27;99252.16;;;1.99;91.87
6208;BME280;3137;51.550;7.060;2023-03-07T09:16:54;99250.06;;;1.90;92.03
6208;BME280;3137;51.550;7.060;2023-03-07T09:19:20;99256.94;;;1.78;91.68
6208;BME280;3137;51.550;7.060;2023-03-07T09:21:48;99265.19;;;1.72;92.50
6208;BME280;3137;51.550;7.060;2023-03-07T09:24:15;99265.38;;;1.69;92.01
6208;BME280;3137;51.550;7.060;2023-03-07T09:26:41;99274.91;;;1.72;92.23
6208;BME280;3137;51.550;7.060;2023-03-07T09:29:08;99274.25;;;1.68;92.38
6208;BME280;3137;51.550;7.060;2023-03-07T09:31:34;99266.34;;;1.68;92.72
6208;BME280;3137;51.550;7.060;2023-03-07T09:34:00;99265.03;;;1.75;92.52
6208;BME280;3137;51.550;7.060;2023-03-07T09:36:27;99259.84;;;1.74;92.58
6208;BME280;3137;51.550;7.060;2023-03-07T09:38:54;99262.41;;;1.75;92.28
6208;BME280;3137;51.550;7.060;2023-03-07T09:41:47;99271.63;;;1.68;92.20
6208;BME280;3137;51.550;7.060;2023-03-07T09:47:49;99283.47;;;1.61;91.93
6208;BME280;3137;51.550;7.060;2023-03-07T09:50:40;99272.50;;;1.53;92.43
6208;BME280;3137;51.550;7.060;2023-03-07T09:53:18;99282.41;;;1.49;92.71
6208;BME280;3137;51.550;7.060;2023-03-07T09:55:48;99278.03;;;1.48;92.71
6208;BME280;3137;51.550;7.060;2023-03-07T09:58:19;99275.00;;;1.40;92.66
6208;BME280;3137;51.550;7.060;2023-03-07T10:00:50;99272.06;;;1.30;92.95
6208;BME280;3137;51.550;7.060;2023-03-07T10:06:36;99278.22;;;1.45;93.50
6208;BME280;3137;51.550;7.060;2023-03-07T10:09:04;99285.47;;;1.41;92.60
6208;BME280;3137;51.550;7.060;2023-03-07T10:15:09;99286.06;;;1.46;92.67
6208;BME280;3137;51.550;7.060;2023-03-07T10:18:15;99297.72;;;1.42;93.28
6208;BME280;3137;51.550;7.060;2023-03-07T10:26:19;99302.16;;;1.42;92.62
6208;BME280;3137;51.550;7.060;2023-03-07T10:28:47;99297.13;;;1.37;92.94
6208;BME280;3137;51.550;7.060;2023-03-07T10:31:24;99299.00;;;1.35;92.53
6208;BME280;3137;51.550;7.060;2023-03-07T10:33:52;99303.50;;;1.33;92.96
6208;BME280;3137;51.550;7.060;2023-03-07T10:36:21;99303.00;;;1.42;92.79
6208;BME280;3137;51.550;7.060;2023-03-07T10:39:03;99308.19;;;1.44;92.36
6208;BME280;3137;51.550;7.060;2023-03-07T10:41:31;99310.13;;;1.40;92.04
6208;BME280;3137;51.550;7.060;2023-03-07T10:43:58;99314.56;;;1.40;92.89
6208;BME280;3137;51.550;7.060;2023-03-07T10:46:28;99314.25;;;1.30;91.95
6208;BME280;3137;51.550;7.060;2023-03-07T10:51:45;99308.38;;;1.09;92.20
6208;BME280;3137;51.550;7.060;2023-03-07T10:54:15;99309.16;;;1.11;92.70
6208;BME280;3137;51.550;7.060;2023-03-07T10:59:27;99307.44;;;1.10;92.26
6208;BME280;3137;51.550;7.060;2023-03-07T11:01:56;99311.63;;;1.14;92.70
6208;BME280;3137;51.550;7.060;2023-03-07T11:04:25;99319.69;;;1.11;91.99
6208;BME280;3137;51.550;7.060;2023-03-07T11:06:57;99313.91;;;1.04;92.32
6208;BME280;3137;51.550;7.060;2023-03-07T11:09:28;99315.28;;;1.12;92.35
6208;BME280;3137;51.550;7.060;2023-03-07T11:17:26;99316.28;;;1.25;92.66
6208;BME280;3137;51.550;7.060;2023-03-07T11:19:56;99316.56;;;1.20;92.81
6208;BME280;3137;51.550;7.060;2023-03-07T11:22:27;99319.97;;;1.22;92.79
6208;BME280;3137;51.550;7.060;2023-03-07T11:24:58;99322.94;;;1.16;91.79
6208;BME280;3137;51.550;7.060;2023-03-07T11:27:36;99325.56;;;1.16;92.17
6208;BME280;3137;51.550;7.060;2023-03-07T11:30:17;99322.94;;;1.16;92.28
6208;BME280;3137;51.550;7.060;2023-03-07T11:32:50;99323.88;;;1.15;92.29
6208;BME280;3137;51.550;7.060;2023-03-07T11:35:20;99317.72;;;1.15;92.73
6208;BME280;3137;51.550;7.060;2023-03-07T11:40:48;99328.91;;;1.20;93.05
6208;BME280;3137;51.550;7.060;2023-03-07T11:43:21;99326.66;;;1.28;93.10
6208;BME280;3137;51.550;7.060;2023-03-07T11:46:02;99317.91;;;1.27;92.50
6208;BME280;3137;51.550;7.060;2023-03-07T12:03:31;99324.09;;;1.42;92.35
6208;BME280;3137;51.550;7.060;2023-03-07T12:19:36;99307.47;;;1.86;92.75
6208;BME280;3137;51.550;7.060;2023-03-07T12:24:45;99315.31;;;1.88;92.67
6208;BME280;3137;51.550;7.060;2023-03-07T12:30:04;99316.44;;;1.98;92.47
6208;BME280;3137;51.550;7.060;2023-03-07T12:32:33;99311.56;;;1.92;91.48
6208;BME280;3137;51.550;7.060;2023-03-07T12:35:14;99306.88;;;1.81;91.50
6208;BME280;3137;51.550;7.060;2023-03-07T12:37:49;99315.41;;;2.01;91.96
6208;BME280;3137;51.550;7.060;2023-03-07T12:40:21;99315.34;;;2.02;91.92
6208;BME280;3137;51.550;7.060;2023-03-07T12:42:56;99300.25;;;2.04;91.57
6208;BME280;3137;51.550;7.060;2023-03-07T12:45:27;99307.06;;;2.08;92.18
6208;BME280;3137;51.550;7.060;2023-03-07T12:48:03;99304.41;;;2.08;92.05
6208;BME280;3137;51.550;7.060;2023-03-07T12:53:36;99307.25;;;2.34;91.85
6208;BME280;3137;51.550;7.060;2023-03-07T12:56:24;99299.50;;;2.17;91.77
6208;BME280;3137;51.550;7.060;2023-03-07T12:58:57;99309.41;;;2.13;91.52
6208;BME280;3137;51.550;7.060;2023-03-07T13:04:39;99306.94;;;1.96;91.22
6208;BME280;3137;51.550;7.060;2023-03-07T13:07:17;99306.16;;;1.94;90.65
6208;BME280;3137;51.550;7.060;2023-03-07T13:09:47;99309.09;;;2.03;90.99
6208;BME280;3137;51.550;7.060;2023-03-07T13:19:53;99309.25;;;1.86;91.40
6208;BME280;3137;51.550;7.060;2023-03-07T13:24:47;99302.50;;;1.96;90.91
6208;BME280;3137;51.550;7.060;2023-03-07T13:27:16;99308.19;;;2.04;91.34
6208;BME280;3137;51.550;7.060;2023-03-07T14:01:30;99298.47;;;2.05;90.95
6208;BME280;3137;51.550;7.060;2023-03-07T14:04:05;99306.94;;;2.10;91.24
6208;BME280;3137;51.550;7.060;2023-03-07T14:06:45;99304.88;;;2.15;90.82
6208;BME280;3137;51.550;7.060;2023-03-07T14:09:17;99300.16;;;2.06;90.89
6208;BME280;3137;51.550;7.060;2023-03-07T14:12:13;99306.75;;;2.13;90.56
6208;BME280;3137;51.550;7.060;2023-03-07T14:15:08;99306.75;;;2.13;89.98
6208;BME280;3137;51.550;7.060;2023-03-07T14:20:56;99318.75;;;2.04;90.80
6208;BME280;3137;51.550;7.060;2023-03-07T14:26:15;99318.53;;;2.07;90.80
6208;BME280;3137;51.550;7.060;2023-03-07T14:28:56;99314.41;;;2.18;91.20
6208;BME280;3137;51.550;7.060;2023-03-07T14:31:29;99315.44;;;2.15;90.99
6208;BME280;3137;51.550;7.060;2023-03-07T14:33:57;99318.22;;;2.28;91.11
6208;BME280;3137;51.550;7.060;2023-03-07T14:36:26;99326.88;;;2.16;91.32
6208;BME280;3137;51.550;7.060;2023-03-07T14:38:56;99309.50;;;2.11;90.86
6208;BME280;3137;51.550;7.060;2023-03-07T14:47:33;99313.84;;;2.12;91.18
6208;BME280;3137;51.550;7.060;2023-03-07T14:50:17;99318.66;;;2.20;91.12
6208;BME280;3137;51.550;7.060;2023-03-07T14:52:44;99317.66;;;2.23;91.22
6208;BME280;3137;51.550;7.060;2023-03-07T14:55:18;99312.63;;;2.18;90.61
6208;BME280;3137;51.550;7.060;2023-03-07T14:57:48;99319.22;;;2.11;91.07
6208;BME280;3137;51.550;7.060;2023-03-07T15:00:28;99320.44;;;2.20;90.95
6208;BME280;3137;51.550;7.060;2023-03-07T15:03:06;99314.25;;;2.21;90.63
6208;BME280;3137;51.550;7.060;2023-03-07T15:05:49;99314.50;;;2.16;90.56
6208;BME280;3137;51.550;7.060;2023-03-07T15:08:25;99309.50;;;2.11;91.18
6208;BME280;3137;51.550;7.060;2023-03-07T15:11:03;99312.81;;;2.15;91.35
6208;BME280;3137;51.550;7.060;2023-03-07T15:13:38;99316.66;;;2.09;91.14
6208;BME280;3137;51.550;7.060;2023-03-07T15:16:12;99319.22;;;2.11;91.63
6208;BME280;3137;51.550;7.060;2023-03-07T15:18:44;99316.47;;;2.12;91.57
6208;BME280;3137;51.550;7.060;2023-03-07T15:21:22;99316.19;;;2.17;91.13
6208;BME280;3137;51.550;7.060;2023-03-07T15:23:51;99318.75;;;2.19;90.94
6208;BME280;3137;51.550;7.060;2023-03-07T15:26:22;99326.13;;;2.13;91.39
6208;BME280;3137;51.550;7.060;2023-03-07T15:28:50;99322.03;;;2.08;90.86
6208;BME280;3137;51.550;7.060;2023-03-07T15:31:22;99327.41;;;2.06;90.80
6208;BME280;3137;51.550;7.060;2023-03-07T15:33:49;99323.59;;;1.96;91.12
6208;BME280;3137;51.550;7.060;2023-03-07T15:36:19;99317.13;;;2.02;91.33
6208;BME280;3137;51.550;7.060;2023-03-07T15:38:48;99324.38;;;1.98;91.24
6208;BME280;3137;51.550;7.060;2023-03-07T15:41:34;99333.13;;;1.99;91.76
6208;BME280;3137;51.550;7.060;2023-03-07T15:44:03;99322.56;;;1.99;91.75
6208;BME280;3137;51.550;7.060;2023-03-07T15:46:30;99325.13;;;2.00;92.05
6208;BME280;3137;51.550;7.060;2023-03-07T15:48:58;99328.53;;;2.02;92.08